CEB921 RPMR-RPLL
Flight info
| Callsign | CEB921 |
|---|---|
| Flight time | N/A |
| Altitude | 38000 |
| Route | LATIA4P LATIA W6 LUMVI B473 LAIYA LAIYA3R |
| Aircraft | A339/H-SADE1E2E3GHIJ3J5M1P2RWXY/LB2D1 |
Departure
| Time | 2026-05-04 12:38 |
|---|---|
| Airport | General Santos International Airport (RPMR) |
Arrival
| Time | N/A |
|---|---|
| Airport | Ninoy Aquino International Airport (RPLL) |
| Time | Latitude | Longitude | Altitude | Speed | Heading |
|---|---|---|---|---|---|
| 2026-05-04 12:14 | 6.05710 | 125.09956 | 543 ft | 0 kts | 83° |
| 2026-05-04 12:26 | 6.05709 | 125.09949 | 544 ft | 2 kts | 82° |
| 2026-05-04 12:26 | 6.05706 | 125.09933 | 544 ft | 2 kts | 82° |
| 2026-05-04 12:26 | 6.05704 | 125.09919 | 544 ft | 2 kts | 82° |
| 2026-05-04 12:27 | 6.05704 | 125.09904 | 545 ft | 2 kts | 106° |
| 2026-05-04 12:27 | 6.05710 | 125.09891 | 546 ft | 2 kts | 128° |
| 2026-05-04 12:27 | 6.05721 | 125.09880 | 547 ft | 2 kts | 150° |
| 2026-05-04 12:27 | 6.05735 | 125.09875 | 548 ft | 2 kts | 172° |
| 2026-05-04 12:28 | 6.05750 | 125.09874 | 547 ft | 2 kts | 176° |
| 2026-05-04 12:28 | 6.05756 | 125.09873 | 546 ft | 0 kts | 174° |
| 2026-05-04 12:31 | 6.05753 | 125.09874 | 544 ft | 1 kts | 174° |
| 2026-05-04 12:31 | 6.05709 | 125.09879 | 544 ft | 10 kts | 173° |
| 2026-05-04 12:32 | 6.05623 | 125.09889 | 544 ft | 14 kts | 173° |
| 2026-05-04 12:32 | 6.05435 | 125.09900 | 544 ft | 7 kts | 227° |
| 2026-05-04 12:32 | 6.05413 | 125.09820 | 544 ft | 15 kts | 262° |
| 2026-05-04 12:33 | 6.05398 | 125.09712 | 544 ft | 15 kts | 259° |
| 2026-05-04 12:33 | 6.05348 | 125.09673 | 544 ft | 9 kts | 180° |
| 2026-05-04 12:33 | 6.05242 | 125.09686 | 544 ft | 19 kts | 172° |
| 2026-05-04 12:33 | 6.05102 | 125.09703 | 544 ft | 20 kts | 173° |
| 2026-05-04 12:34 | 6.04963 | 125.09721 | 544 ft | 20 kts | 174° |
| 2026-05-04 12:34 | 6.04819 | 125.09737 | 544 ft | 20 kts | 172° |
| 2026-05-04 12:34 | 6.04675 | 125.09757 | 544 ft | 19 kts | 174° |
| 2026-05-04 12:34 | 6.04543 | 125.09773 | 544 ft | 15 kts | 161° |
| 2026-05-04 12:35 | 6.04507 | 125.09857 | 543 ft | 14 kts | 81° |
| 2026-05-04 12:35 | 6.04502 | 125.09929 | 541 ft | 7 kts | 135° |
| 2026-05-04 12:35 | 6.04444 | 125.09950 | 539 ft | 10 kts | 178° |
| 2026-05-04 12:35 | 6.04396 | 125.09907 | 538 ft | 10 kts | 255° |
| 2026-05-04 12:36 | 6.04387 | 125.09838 | 538 ft | 10 kts | 263° |
| 2026-05-04 12:36 | 6.04391 | 125.09795 | 538 ft | 4 kts | 317° |
| 2026-05-04 12:36 | 6.04415 | 125.09787 | 538 ft | 0 kts | 352° |
| 2026-05-04 12:36 | 6.04429 | 125.09785 | 538 ft | 5 kts | 352° |
| 2026-05-04 12:37 | 6.04668 | 125.09756 | 538 ft | 67 kts | 353° |
| 2026-05-04 12:37 | 6.05338 | 125.09676 | 539 ft | 124 kts | 352° |
| 2026-05-04 12:37 | 6.06358 | 125.09551 | 575 ft | 167 kts | 354° |
| 2026-05-04 12:37 | 6.07576 | 125.09409 | 915 ft | 179 kts | 354° |
| 2026-05-04 12:38 | 6.08802 | 125.09270 | 1525 ft | 180 kts | 358° |
| 2026-05-04 12:38 | 6.10026 | 125.09373 | 2236 ft | 173 kts | 9° |
| 2026-05-04 12:38 | 6.11180 | 125.09539 | 2924 ft | 166 kts | 8° |
| 2026-05-04 12:38 | 6.12319 | 125.09740 | 3430 ft | 170 kts | 22° |
| 2026-05-04 12:39 | 6.13280 | 125.10504 | 3750 ft | 186 kts | 50° |
| 2026-05-04 12:39 | 6.14066 | 125.11591 | 4080 ft | 202 kts | 55° |
| 2026-05-04 12:39 | 6.14878 | 125.12783 | 4508 ft | 212 kts | 55° |
| 2026-05-04 12:39 | 6.15772 | 125.14053 | 4835 ft | 231 kts | 54° |
| 2026-05-04 12:40 | 6.16748 | 125.15396 | 5172 ft | 248 kts | 54° |
| 2026-05-04 12:40 | 6.17827 | 125.16847 | 5538 ft | 265 kts | 53° |
| 2026-05-04 12:40 | 6.18956 | 125.18347 | 6153 ft | 272 kts | 53° |
| 2026-05-04 12:40 | 6.20098 | 125.19858 | 6889 ft | 274 kts | 53° |
| 2026-05-04 12:41 | 6.21245 | 125.21375 | 7596 ft | 276 kts | 53° |
| 2026-05-04 12:41 | 6.22454 | 125.22903 | 8276 ft | 280 kts | 46° |
| 2026-05-04 12:41 | 6.24035 | 125.24030 | 8927 ft | 286 kts | 26° |
| 2026-05-04 12:41 | 6.25966 | 125.24622 | 9607 ft | 290 kts | 15° |
| 2026-05-04 12:42 | 6.27941 | 125.25066 | 10262 ft | 293 kts | 14° |
| 2026-05-04 12:42 | 6.29972 | 125.25515 | 10662 ft | 307 kts | 14° |
| 2026-05-04 12:42 | 6.32102 | 125.25985 | 11005 ft | 321 kts | 12° |
| 2026-05-04 12:42 | 6.34360 | 125.25976 | 11526 ft | 333 kts | 346° |
| 2026-05-04 12:43 | 6.36479 | 125.24963 | 12208 ft | 337 kts | 329° |
| 2026-05-04 12:43 | 6.38439 | 125.23666 | 12877 ft | 339 kts | 328° |
| 2026-05-04 12:43 | 6.40413 | 125.22341 | 13523 ft | 342 kts | 328° |
| 2026-05-04 12:43 | 6.42420 | 125.21037 | 14133 ft | 345 kts | 329° |
| 2026-05-04 12:44 | 6.44475 | 125.19745 | 14633 ft | 352 kts | 330° |
| 2026-05-04 12:44 | 6.46593 | 125.18443 | 15180 ft | 356 kts | 330° |
| 2026-05-04 12:44 | 6.48720 | 125.17152 | 15746 ft | 360 kts | 331° |
| 2026-05-04 12:44 | 6.50866 | 125.15859 | 16296 ft | 363 kts | 331° |
| 2026-05-04 12:45 | 6.53048 | 125.14548 | 16836 ft | 367 kts | 331° |
| 2026-05-04 12:45 | 6.55270 | 125.13216 | 17370 ft | 370 kts | 331° |
| 2026-05-04 12:45 | 6.57496 | 125.11885 | 17914 ft | 373 kts | 331° |
| 2026-05-04 12:45 | 6.59704 | 125.10563 | 18454 ft | 375 kts | 331° |
| 2026-05-04 12:46 | 6.61955 | 125.09215 | 18995 ft | 378 kts | 331° |
| 2026-05-04 12:46 | 6.64250 | 125.07842 | 19540 ft | 380 kts | 331° |
| 2026-05-04 12:46 | 6.66511 | 125.06489 | 20051 ft | 382 kts | 331° |
| 2026-05-04 12:46 | 6.68819 | 125.05107 | 20558 ft | 385 kts | 331° |
| 2026-05-04 12:47 | 6.71128 | 125.03726 | 21049 ft | 387 kts | 331° |
| 2026-05-04 12:47 | 6.73459 | 125.02330 | 21527 ft | 390 kts | 331° |
| 2026-05-04 12:47 | 6.75789 | 125.00935 | 21988 ft | 392 kts | 331° |
| 2026-05-04 12:47 | 6.78137 | 124.99529 | 22445 ft | 395 kts | 331° |
| 2026-05-04 12:48 | 6.80501 | 124.98114 | 22887 ft | 398 kts | 331° |
| 2026-05-04 12:48 | 6.82903 | 124.96677 | 23315 ft | 401 kts | 331° |
| 2026-05-04 12:48 | 6.85318 | 124.95229 | 23741 ft | 404 kts | 331° |
| 2026-05-04 12:48 | 6.87738 | 124.93797 | 24164 ft | 407 kts | 333° |
| 2026-05-04 12:49 | 6.90278 | 124.92570 | 24569 ft | 408 kts | 339° |
| 2026-05-04 12:49 | 6.92982 | 124.91637 | 24970 ft | 410 kts | 346° |
| 2026-05-04 12:49 | 6.95779 | 124.90981 | 25359 ft | 413 kts | 349° |
| 2026-05-04 12:49 | 6.98623 | 124.90394 | 25738 ft | 416 kts | 350° |
| 2026-05-04 12:50 | 7.01464 | 124.89820 | 26104 ft | 420 kts | 350° |
| 2026-05-04 12:50 | 7.04380 | 124.89230 | 26477 ft | 423 kts | 350° |
| 2026-05-04 12:50 | 7.07285 | 124.88637 | 26840 ft | 427 kts | 350° |
| 2026-05-04 12:50 | 7.10197 | 124.88039 | 27203 ft | 430 kts | 350° |
| 2026-05-04 12:51 | 7.13137 | 124.87434 | 27560 ft | 433 kts | 349° |
| 2026-05-04 12:51 | 7.16097 | 124.86824 | 27912 ft | 435 kts | 349° |
| 2026-05-04 12:51 | 7.19096 | 124.86205 | 28262 ft | 438 kts | 349° |
| 2026-05-04 12:51 | 7.22102 | 124.85584 | 28615 ft | 441 kts | 349° |
| 2026-05-04 12:52 | 7.25113 | 124.84963 | 28970 ft | 443 kts | 349° |
| 2026-05-04 12:52 | 7.28148 | 124.84336 | 29378 ft | 445 kts | 349° |
| 2026-05-04 12:52 | 7.31190 | 124.83709 | 29764 ft | 446 kts | 349° |
| 2026-05-04 12:52 | 7.34246 | 124.83079 | 30121 ft | 448 kts | 349° |
| 2026-05-04 12:53 | 7.37323 | 124.82445 | 30471 ft | 451 kts | 349° |
| 2026-05-04 12:53 | 7.40394 | 124.81812 | 30813 ft | 453 kts | 349° |
| 2026-05-04 12:53 | 7.43491 | 124.81173 | 31154 ft | 455 kts | 349° |
| 2026-05-04 12:53 | 7.46637 | 124.80524 | 31486 ft | 457 kts | 349° |
| 2026-05-04 12:54 | 7.49771 | 124.79878 | 31823 ft | 460 kts | 349° |
| 2026-05-04 12:54 | 7.52912 | 124.79228 | 32157 ft | 462 kts | 349° |
| 2026-05-04 12:54 | 7.56077 | 124.78576 | 32493 ft | 463 kts | 349° |
| 2026-05-04 12:54 | 7.59243 | 124.77922 | 32841 ft | 465 kts | 349° |
| 2026-05-04 12:55 | 7.62428 | 124.77264 | 33199 ft | 467 kts | 349° |
| 2026-05-04 12:55 | 7.65619 | 124.76605 | 33551 ft | 469 kts | 349° |
| 2026-05-04 12:55 | 7.68837 | 124.75939 | 33890 ft | 472 kts | 349° |
| 2026-05-04 12:55 | 7.69903 | 124.75719 | 34007 ft | 472 kts | 349° |